sensor_id;sensor_type;location;lat;lon;timestamp;P1;durP1;ratioP1;P2;durP2;ratioP2
50757;SDS011;36732;47.980;11.652;2023-05-27T00:02:07;5.25;;;3.92;;
50757;SDS011;36732;47.980;11.652;2023-05-27T00:04:32;5.55;;;4.03;;
50757;SDS011;36732;47.980;11.652;2023-05-27T00:06:58;4.07;;;3.40;;
50757;SDS011;36732;47.980;11.652;2023-05-27T00:09:24;5.15;;;4.18;;
50757;SDS011;36732;47.980;11.652;2023-05-27T00:11:50;4.18;;;3.78;;
50757;SDS011;36732;47.980;11.652;2023-05-27T00:14:15;4.55;;;3.75;;
50757;SDS011;36732;47.980;11.652;2023-05-27T00:16:42;5.10;;;3.97;;
50757;SDS011;36732;47.980;11.652;2023-05-27T00:19:08;5.43;;;4.20;;
50757;SDS011;36732;47.980;11.652;2023-05-27T00:21:34;5.63;;;3.97;;
50757;SDS011;36732;47.980;11.652;2023-05-27T00:23:59;5.63;;;3.80;;
50757;SDS011;36732;47.980;11.652;2023-05-27T00:26:25;5.15;;;4.03;;
50757;SDS011;36732;47.980;11.652;2023-05-27T00:28:51;5.75;;;4.00;;
50757;SDS011;36732;47.980;11.652;2023-05-27T00:31:17;4.72;;;4.03;;
50757;SDS011;36732;47.980;11.652;2023-05-27T00:33:43;6.50;;;4.22;;
50757;SDS011;36732;47.980;11.652;2023-05-27T00:36:09;9.40;;;4.40;;
50757;SDS011;36732;47.980;11.652;2023-05-27T00:38:35;4.00;;;3.60;;
50757;SDS011;36732;47.980;11.652;2023-05-27T00:41:01;5.88;;;4.07;;
50757;SDS011;36732;47.980;11.652;2023-05-27T00:43:29;7.65;;;4.03;;
50757;SDS011;36732;47.980;11.652;2023-05-27T00:45:57;5.35;;;4.50;;
50757;SDS011;36732;47.980;11.652;2023-05-27T00:48:23;4.97;;;3.85;;
50757;SDS011;36732;47.980;11.652;2023-05-27T00:50:49;6.32;;;4.60;;
50757;SDS011;36732;47.980;11.652;2023-05-27T00:53:15;5.65;;;3.95;;
50757;SDS011;36732;47.980;11.652;2023-05-27T00:55:42;6.93;;;4.10;;
50757;SDS011;36732;47.980;11.652;2023-05-27T00:58:08;4.20;;;3.80;;
50757;SDS011;36732;47.980;11.652;2023-05-27T01:00:34;6.20;;;4.47;;
50757;SDS011;36732;47.980;11.652;2023-05-27T01:03:03;7.20;;;4.65;;
50757;SDS011;36732;47.980;11.652;2023-05-27T01:05:34;5.18;;;4.00;;
50757;SDS011;36732;47.980;11.652;2023-05-27T01:10:52;5.38;;;4.47;;
50757;SDS011;36732;47.980;11.652;2023-05-27T01:16:11;6.60;;;4.50;;
50757;SDS011;36732;47.980;11.652;2023-05-27T01:18:42;5.28;;;4.38;;
50757;SDS011;36732;47.980;11.652;2023-05-27T01:21:15;6.85;;;4.80;;
50757;SDS011;36732;47.980;11.652;2023-05-27T01:23:47;5.75;;;4.78;;
50757;SDS011;36732;47.980;11.652;2023-05-27T01:26:13;7.57;;;4.80;;
50757;SDS011;36732;47.980;11.652;2023-05-27T01:28:40;5.30;;;4.35;;
50757;SDS011;36732;47.980;11.652;2023-05-27T01:33:48;6.32;;;4.78;;
50757;SDS011;36732;47.980;11.652;2023-05-27T01:36:22;7.13;;;5.35;;
50757;SDS011;36732;47.980;11.652;2023-05-27T01:38:51;5.53;;;4.40;;
50757;SDS011;36732;47.980;11.652;2023-05-27T01:41:19;5.53;;;4.38;;
50757;SDS011;36732;47.980;11.652;2023-05-27T01:43:47;5.82;;;4.93;;
50757;SDS011;36732;47.980;11.652;2023-05-27T01:46:14;7.65;;;4.95;;
50757;SDS011;36732;47.980;11.652;2023-05-27T01:48:40;7.93;;;5.18;;
50757;SDS011;36732;47.980;11.652;2023-05-27T01:51:06;8.75;;;5.22;;
50757;SDS011;36732;47.980;11.652;2023-05-27T01:53:31;9.43;;;4.88;;
50757;SDS011;36732;47.980;11.652;2023-05-27T01:55:59;6.63;;;4.75;;
50757;SDS011;36732;47.980;11.652;2023-05-27T01:58:25;6.30;;;4.95;;
50757;SDS011;36732;47.980;11.652;2023-05-27T02:00:51;13.88;;;5.28;;
50757;SDS011;36732;47.980;11.652;2023-05-27T02:03:16;6.15;;;4.63;;
50757;SDS011;36732;47.980;11.652;2023-05-27T02:05:42;6.53;;;4.72;;
50757;SDS011;36732;47.980;11.652;2023-05-27T02:08:08;6.53;;;5.05;;
50757;SDS011;36732;47.980;11.652;2023-05-27T02:10:34;5.07;;;4.55;;
50757;SDS011;36732;47.980;11.652;2023-05-27T02:13:00;6.68;;;5.00;;
50757;SDS011;36732;47.980;11.652;2023-05-27T02:15:26;7.68;;;5.00;;
50757;SDS011;36732;47.980;11.652;2023-05-27T02:17:51;9.30;;;5.40;;
50757;SDS011;36732;47.980;11.652;2023-05-27T02:20:21;6.65;;;4.93;;
50757;SDS011;36732;47.980;11.652;2023-05-27T02:22:49;7.45;;;5.13;;
50757;SDS011;36732;47.980;11.652;2023-05-27T02:25:15;9.93;;;5.35;;
50757;SDS011;36732;47.980;11.652;2023-05-27T02:27:41;6.15;;;4.78;;
50757;SDS011;36732;47.980;11.652;2023-05-27T02:30:09;7.15;;;5.03;;
50757;SDS011;36732;47.980;11.652;2023-05-27T02:32:35;5.82;;;4.78;;
50757;SDS011;36732;47.980;11.652;2023-05-27T02:35:01;8.45;;;4.93;;
50757;SDS011;36732;47.980;11.652;2023-05-27T02:37:27;7.47;;;5.03;;
50757;SDS011;36732;47.980;11.652;2023-05-27T02:39:53;5.10;;;4.38;;
50757;SDS011;36732;47.980;11.652;2023-05-27T02:42:20;5.70;;;4.90;;
50757;SDS011;36732;47.980;11.652;2023-05-27T02:44:46;8.10;;;4.75;;
50757;SDS011;36732;47.980;11.652;2023-05-27T02:47:11;6.15;;;4.90;;
50757;SDS011;36732;47.980;11.652;2023-05-27T02:49:37;8.27;;;5.25;;
50757;SDS011;36732;47.980;11.652;2023-05-27T02:52:03;10.00;;;5.18;;
50757;SDS011;36732;47.980;11.652;2023-05-27T02:54:29;7.13;;;5.25;;
50757;SDS011;36732;47.980;11.652;2023-05-27T02:56:55;6.28;;;4.88;;
50757;SDS011;36732;47.980;11.652;2023-05-27T02:59:20;5.72;;;4.85;;
50757;SDS011;36732;47.980;11.652;2023-05-27T03:01:46;7.32;;;4.90;;
50757;SDS011;36732;47.980;11.652;2023-05-27T03:04:12;5.32;;;4.63;;
50757;SDS011;36732;47.980;11.652;2023-05-27T03:06:37;5.47;;;4.65;;
50757;SDS011;36732;47.980;11.652;2023-05-27T03:09:03;5.90;;;4.90;;
50757;SDS011;36732;47.980;11.652;2023-05-27T03:11:29;6.22;;;4.97;;
50757;SDS011;36732;47.980;11.652;2023-05-27T03:13:55;5.47;;;4.50;;
50757;SDS011;36732;47.980;11.652;2023-05-27T03:16:20;7.43;;;5.07;;
50757;SDS011;36732;47.980;11.652;2023-05-27T03:18:47;5.03;;;4.45;;
50757;SDS011;36732;47.980;11.652;2023-05-27T03:21:13;6.43;;;5.15;;
50757;SDS011;36732;47.980;11.652;2023-05-27T03:23:39;6.60;;;4.93;;
50757;SDS011;36732;47.980;11.652;2023-05-27T03:26:05;7.13;;;5.05;;
50757;SDS011;36732;47.980;11.652;2023-05-27T03:28:30;6.10;;;5.10;;
50757;SDS011;36732;47.980;11.652;2023-05-27T03:30:56;10.80;;;4.90;;
50757;SDS011;36732;47.980;11.652;2023-05-27T03:33:22;5.80;;;5.15;;
50757;SDS011;36732;47.980;11.652;2023-05-27T03:35:48;6.47;;;4.85;;
50757;SDS011;36732;47.980;11.652;2023-05-27T03:38:15;6.38;;;4.60;;
50757;SDS011;36732;47.980;11.652;2023-05-27T03:40:40;6.78;;;4.53;;
50757;SDS011;36732;47.980;11.652;2023-05-27T03:43:06;6.45;;;5.15;;
50757;SDS011;36732;47.980;11.652;2023-05-27T03:45:32;6.43;;;5.05;;
50757;SDS011;36732;47.980;11.652;2023-05-27T03:47:57;5.80;;;4.55;;
50757;SDS011;36732;47.980;11.652;2023-05-27T03:50:23;7.05;;;5.03;;
50757;SDS011;36732;47.980;11.652;2023-05-27T03:52:49;5.30;;;4.47;;
50757;SDS011;36732;47.980;11.652;2023-05-27T03:55:15;6.03;;;4.60;;
50757;SDS011;36732;47.980;11.652;2023-05-27T03:57:45;4.88;;;4.35;;
50757;SDS011;36732;47.980;11.652;2023-05-27T04:00:11;6.43;;;5.00;;
50757;SDS011;36732;47.980;11.652;2023-05-27T04:02:38;6.10;;;5.13;;
50757;SDS011;36732;47.980;11.652;2023-05-27T04:05:04;5.38;;;4.70;;
50757;SDS011;36732;47.980;11.652;2023-05-27T04:07:30;7.63;;;5.00;;
50757;SDS011;36732;47.980;11.652;2023-05-27T04:09:56;7.80;;;5.07;;
50757;SDS011;36732;47.980;11.652;2023-05-27T04:12:22;5.82;;;5.22;;
50757;SDS011;36732;47.980;11.652;2023-05-27T04:14:49;6.60;;;5.13;;
50757;SDS011;36732;47.980;11.652;2023-05-27T04:17:15;5.65;;;4.82;;
50757;SDS011;36732;47.980;11.652;2023-05-27T04:19:42;8.13;;;5.35;;
50757;SDS011;36732;47.980;11.652;2023-05-27T04:22:08;7.10;;;5.55;;
50757;SDS011;36732;47.980;11.652;2023-05-27T04:24:33;6.88;;;5.03;;
50757;SDS011;36732;47.980;11.652;2023-05-27T04:26:59;7.70;;;4.93;;
50757;SDS011;36732;47.980;11.652;2023-05-27T04:29:27;6.43;;;4.53;;
50757;SDS011;36732;47.980;11.652;2023-05-27T04:31:53;6.63;;;4.55;;
50757;SDS011;36732;47.980;11.652;2023-05-27T04:34:21;5.63;;;4.60;;
50757;SDS011;36732;47.980;11.652;2023-05-27T04:36:47;7.18;;;5.07;;
50757;SDS011;36732;47.980;11.652;2023-05-27T04:39:14;6.72;;;4.85;;
50757;SDS011;36732;47.980;11.652;2023-05-27T04:41:41;5.82;;;4.72;;
50757;SDS011;36732;47.980;11.652;2023-05-27T04:44:07;5.70;;;4.78;;
50757;SDS011;36732;47.980;11.652;2023-05-27T04:46:33;6.38;;;5.07;;
50757;SDS011;36732;47.980;11.652;2023-05-27T04:48:59;6.88;;;5.05;;
50757;SDS011;36732;47.980;11.652;2023-05-27T04:51:25;6.30;;;4.75;;
50757;SDS011;36732;47.980;11.652;2023-05-27T04:53:51;5.82;;;4.70;;
50757;SDS011;36732;47.980;11.652;2023-05-27T04:56:16;5.78;;;4.93;;
50757;SDS011;36732;47.980;11.652;2023-05-27T04:58:45;7.25;;;4.80;;
50757;SDS011;36732;47.980;11.652;2023-05-27T05:01:13;9.05;;;4.85;;
50757;SDS011;36732;47.980;11.652;2023-05-27T05:03:43;6.10;;;4.63;;
50757;SDS011;36732;47.980;11.652;2023-05-27T05:06:17;6.15;;;5.07;;
50757;SDS011;36732;47.980;11.652;2023-05-27T05:08:47;6.80;;;4.50;;
50757;SDS011;36732;47.980;11.652;2023-05-27T05:11:14;6.72;;;5.20;;
50757;SDS011;36732;47.980;11.652;2023-05-27T05:13:40;7.25;;;5.70;;
50757;SDS011;36732;47.980;11.652;2023-05-27T05:16:06;5.68;;;4.53;;
50757;SDS011;36732;47.980;11.652;2023-05-27T05:18:31;8.68;;;5.43;;
50757;SDS011;36732;47.980;11.652;2023-05-27T05:20:57;8.35;;;5.47;;
50757;SDS011;36732;47.980;11.652;2023-05-27T05:23:23;7.55;;;5.18;;
50757;SDS011;36732;47.980;11.652;2023-05-27T05:25:48;6.38;;;4.85;;
50757;SDS011;36732;47.980;11.652;2023-05-27T05:28:20;6.22;;;5.18;;
50757;SDS011;36732;47.980;11.652;2023-05-27T05:30:45;7.50;;;4.80;;
50757;SDS011;36732;47.980;11.652;2023-05-27T05:33:11;8.20;;;5.20;;
50757;SDS011;36732;47.980;11.652;2023-05-27T05:35:37;7.43;;;5.13;;
50757;SDS011;36732;47.980;11.652;2023-05-27T05:38:03;7.15;;;4.85;;
50757;SDS011;36732;47.980;11.652;2023-05-27T05:40:28;6.57;;;4.63;;
50757;SDS011;36732;47.980;11.652;2023-05-27T05:42:54;6.45;;;4.28;;
50757;SDS011;36732;47.980;11.652;2023-05-27T05:45:20;9.90;;;4.50;;
50757;SDS011;36732;47.980;11.652;2023-05-27T05:47:45;5.03;;;4.00;;
50757;SDS011;36732;47.980;11.652;2023-05-27T05:50:11;6.40;;;4.35;;
50757;SDS011;36732;47.980;11.652;2023-05-27T05:52:37;7.15;;;4.10;;
50757;SDS011;36732;47.980;11.652;2023-05-27T05:55:02;6.72;;;4.38;;
50757;SDS011;36732;47.980;11.652;2023-05-27T05:57:28;9.35;;;4.32;;
50757;SDS011;36732;47.980;11.652;2023-05-27T05:59:56;11.43;;;4.60;;
50757;SDS011;36732;47.980;11.652;2023-05-27T06:02:22;7.88;;;4.18;;
50757;SDS011;36732;47.980;11.652;2023-05-27T06:04:50;8.30;;;4.95;;
50757;SDS011;36732;47.980;11.652;2023-05-27T06:07:16;6.40;;;4.40;;
50757;SDS011;36732;47.980;11.652;2023-05-27T06:09:41;6.75;;;4.05;;
50757;SDS011;36732;47.980;11.652;2023-05-27T06:12:07;7.43;;;4.30;;
50757;SDS011;36732;47.980;11.652;2023-05-27T06:14:33;12.88;;;5.13;;
50757;SDS011;36732;47.980;11.652;2023-05-27T06:16:59;7.20;;;4.13;;
50757;SDS011;36732;47.980;11.652;2023-05-27T06:19:25;6.05;;;4.15;;
50757;SDS011;36732;47.980;11.652;2023-05-27T06:21:50;9.40;;;4.20;;
50757;SDS011;36732;47.980;11.652;2023-05-27T06:24:16;9.52;;;4.43;;
50757;SDS011;36732;47.980;11.652;2023-05-27T06:26:44;17.50;;;5.03;;
50757;SDS011;36732;47.980;11.652;2023-05-27T06:29:09;7.00;;;4.80;;
50757;SDS011;36732;47.980;11.652;2023-05-27T06:31:35;6.28;;;4.00;;
50757;SDS011;36732;47.980;11.652;2023-05-27T06:34:01;7.53;;;4.28;;
50757;SDS011;36732;47.980;11.652;2023-05-27T06:36:27;8.38;;;4.28;;
50757;SDS011;36732;47.980;11.652;2023-05-27T06:38:53;6.72;;;4.47;;
50757;SDS011;36732;47.980;11.652;2023-05-27T06:41:19;6.88;;;4.00;;
50757;SDS011;36732;47.980;11.652;2023-05-27T06:43:44;6.60;;;4.10;;
50757;SDS011;36732;47.980;11.652;2023-05-27T06:46:10;7.20;;;4.22;;
50757;SDS011;36732;47.980;11.652;2023-05-27T06:48:36;7.28;;;4.00;;
50757;SDS011;36732;47.980;11.652;2023-05-27T06:51:01;6.68;;;3.85;;
50757;SDS011;36732;47.980;11.652;2023-05-27T06:53:27;5.95;;;3.88;;
50757;SDS011;36732;47.980;11.652;2023-05-27T06:55:53;8.07;;;4.10;;
50757;SDS011;36732;47.980;11.652;2023-05-27T06:58:20;8.00;;;4.43;;
50757;SDS011;36732;47.980;11.652;2023-05-27T07:00:45;12.63;;;4.40;;
50757;SDS011;36732;47.980;11.652;2023-05-27T07:03:11;6.40;;;3.60;;
50757;SDS011;36732;47.980;11.652;2023-05-27T07:05:37;10.15;;;4.55;;
50757;SDS011;36732;47.980;11.652;2023-05-27T07:08:03;9.52;;;4.55;;
50757;SDS011;36732;47.980;11.652;2023-05-27T07:10:30;7.32;;;4.30;;
50757;SDS011;36732;47.980;11.652;2023-05-27T07:12:56;8.45;;;4.82;;
50757;SDS011;36732;47.980;11.652;2023-05-27T07:15:22;7.03;;;3.70;;
50757;SDS011;36732;47.980;11.652;2023-05-27T07:17:47;6.78;;;4.07;;
50757;SDS011;36732;47.980;11.652;2023-05-27T07:20:13;7.47;;;4.32;;
50757;SDS011;36732;47.980;11.652;2023-05-27T07:22:39;7.55;;;4.22;;
50757;SDS011;36732;47.980;11.652;2023-05-27T07:25:04;6.78;;;4.15;;
50757;SDS011;36732;47.980;11.652;2023-05-27T07:27:31;8.30;;;4.00;;
50757;SDS011;36732;47.980;11.652;2023-05-27T07:29:57;8.50;;;4.78;;
50757;SDS011;36732;47.980;11.652;2023-05-27T07:32:22;8.85;;;4.65;;
50757;SDS011;36732;47.980;11.652;2023-05-27T07:34:48;9.63;;;4.05;;
50757;SDS011;36732;47.980;11.652;2023-05-27T07:37:15;8.57;;;4.38;;
50757;SDS011;36732;47.980;11.652;2023-05-27T07:39:40;10.63;;;4.60;;
50757;SDS011;36732;47.980;11.652;2023-05-27T07:42:06;8.23;;;3.78;;
50757;SDS011;36732;47.980;11.652;2023-05-27T07:44:32;7.20;;;4.13;;
50757;SDS011;36732;47.980;11.652;2023-05-27T07:46:57;6.30;;;3.58;;
50757;SDS011;36732;47.980;11.652;2023-05-27T07:49:24;8.65;;;4.63;;
50757;SDS011;36732;47.980;11.652;2023-05-27T07:51:50;5.18;;;4.28;;
50757;SDS011;36732;47.980;11.652;2023-05-27T07:54:16;7.53;;;4.25;;
50757;SDS011;36732;47.980;11.652;2023-05-27T07:56:41;6.63;;;4.10;;
50757;SDS011;36732;47.980;11.652;2023-05-27T07:59:07;10.93;;;5.45;;
50757;SDS011;36732;47.980;11.652;2023-05-27T08:01:33;9.65;;;4.45;;
50757;SDS011;36732;47.980;11.652;2023-05-27T08:03:58;10.27;;;4.63;;
50757;SDS011;36732;47.980;11.652;2023-05-27T08:06:24;6.60;;;3.92;;
50757;SDS011;36732;47.980;11.652;2023-05-27T08:08:50;7.68;;;4.88;;
50757;SDS011;36732;47.980;11.652;2023-05-27T08:11:16;7.20;;;4.53;;
50757;SDS011;36732;47.980;11.652;2023-05-27T08:13:42;7.72;;;4.20;;
50757;SDS011;36732;47.980;11.652;2023-05-27T08:16:07;8.18;;;4.40;;
50757;SDS011;36732;47.980;11.652;2023-05-27T08:18:35;5.78;;;3.63;;
50757;SDS011;36732;47.980;11.652;2023-05-27T08:21:02;7.28;;;4.25;;
50757;SDS011;36732;47.980;11.652;2023-05-27T08:23:28;7.15;;;4.45;;
50757;SDS011;36732;47.980;11.652;2023-05-27T08:25:53;7.35;;;4.35;;
50757;SDS011;36732;47.980;11.652;2023-05-27T08:28:20;8.38;;;4.60;;
50757;SDS011;36732;47.980;11.652;2023-05-27T08:30:45;9.57;;;4.60;;
50757;SDS011;36732;47.980;11.652;2023-05-27T08:33:12;7.82;;;4.45;;
50757;SDS011;36732;47.980;11.652;2023-05-27T08:35:38;7.40;;;3.70;;
50757;SDS011;36732;47.980;11.652;2023-05-27T08:38:04;9.13;;;4.78;;
50757;SDS011;36732;47.980;11.652;2023-05-27T08:40:29;8.95;;;4.15;;
50757;SDS011;36732;47.980;11.652;2023-05-27T08:42:55;8.23;;;4.55;;
50757;SDS011;36732;47.980;11.652;2023-05-27T08:45:21;7.30;;;3.90;;
50757;SDS011;36732;47.980;11.652;2023-05-27T08:47:47;7.63;;;3.88;;
50757;SDS011;36732;47.980;11.652;2023-05-27T08:50:14;9.38;;;4.07;;
50757;SDS011;36732;47.980;11.652;2023-05-27T08:52:46;7.18;;;4.18;;
50757;SDS011;36732;47.980;11.652;2023-05-27T08:55:19;6.85;;;3.95;;
50757;SDS011;36732;47.980;11.652;2023-05-27T08:57:50;8.45;;;5.03;;
50757;SDS011;36732;47.980;11.652;2023-05-27T09:00:20;11.18;;;4.95;;
50757;SDS011;36732;47.980;11.652;2023-05-27T09:02:47;7.50;;;4.07;;
50757;SDS011;36732;47.980;11.652;2023-05-27T09:05:13;7.85;;;4.30;;
50757;SDS011;36732;47.980;11.652;2023-05-27T09:07:41;8.50;;;5.00;;
50757;SDS011;36732;47.980;11.652;2023-05-27T09:10:07;8.35;;;4.72;;
50757;SDS011;36732;47.980;11.652;2023-05-27T09:12:34;6.35;;;4.13;;
50757;SDS011;36732;47.980;11.652;2023-05-27T09:15:01;9.02;;;4.60;;
50757;SDS011;36732;47.980;11.652;2023-05-27T09:17:28;9.45;;;4.00;;
50757;SDS011;36732;47.980;11.652;2023-05-27T09:19:54;6.85;;;4.50;;
50757;SDS011;36732;47.980;11.652;2023-05-27T09:22:21;7.15;;;4.32;;
50757;SDS011;36732;47.980;11.652;2023-05-27T09:24:55;7.65;;;4.38;;
50757;SDS011;36732;47.980;11.652;2023-05-27T09:27:25;6.97;;;4.20;;
50757;SDS011;36732;47.980;11.652;2023-05-27T09:29:55;8.73;;;4.97;;
50757;SDS011;36732;47.980;11.652;2023-05-27T09:34:56;8.30;;;4.30;;
50757;SDS011;36732;47.980;11.652;2023-05-27T09:37:26;7.28;;;4.65;;
50757;SDS011;36732;47.980;11.652;2023-05-27T09:39:57;8.93;;;4.53;;
50757;SDS011;36732;47.980;11.652;2023-05-27T09:42:50;9.25;;;4.72;;
50757;SDS011;36732;47.980;11.652;2023-05-27T09:45:16;7.35;;;4.78;;
50757;SDS011;36732;47.980;11.652;2023-05-27T09:47:49;9.73;;;4.53;;
50757;SDS011;36732;47.980;11.652;2023-05-27T09:50:17;10.45;;;5.18;;
50757;SDS011;36732;47.980;11.652;2023-05-27T09:52:45;6.82;;;4.22;;
50757;SDS011;36732;47.980;11.652;2023-05-27T09:55:13;7.70;;;5.03;;
50757;SDS011;36732;47.980;11.652;2023-05-27T09:57:40;10.07;;;4.43;;
50757;SDS011;36732;47.980;11.652;2023-05-27T10:00:07;9.50;;;4.40;;
50757;SDS011;36732;47.980;11.652;2023-05-27T10:02:41;7.45;;;4.25;;
50757;SDS011;36732;47.980;11.652;2023-05-27T10:05:11;9.23;;;4.30;;
50757;SDS011;36732;47.980;11.652;2023-05-27T10:07:45;14.65;;;5.47;;
50757;SDS011;36732;47.980;11.652;2023-05-27T10:10:15;9.50;;;5.20;;
50757;SDS011;36732;47.980;11.652;2023-05-27T10:12:43;12.30;;;6.05;;
50757;SDS011;36732;47.980;11.652;2023-05-27T10:15:26;12.10;;;5.63;;
50757;SDS011;36732;47.980;11.652;2023-05-27T10:17:54;6.35;;;4.50;;
50757;SDS011;36732;47.980;11.652;2023-05-27T10:20:27;10.25;;;4.75;;
50757;SDS011;36732;47.980;11.652;2023-05-27T10:23:12;7.88;;;4.53;;
50757;SDS011;36732;47.980;11.652;2023-05-27T10:25:39;8.35;;;4.72;;
50757;SDS011;36732;47.980;11.652;2023-05-27T10:28:10;10.65;;;5.28;;
50757;SDS011;36732;47.980;11.652;2023-05-27T10:30:43;7.95;;;4.28;;
50757;SDS011;36732;47.980;11.652;2023-05-27T10:33:10;8.40;;;4.93;;
50757;SDS011;36732;47.980;11.652;2023-05-27T10:35:39;8.23;;;4.22;;
50757;SDS011;36732;47.980;11.652;2023-05-27T10:38:16;6.95;;;4.57;;
50757;SDS011;36732;47.980;11.652;2023-05-27T10:40:43;8.25;;;4.45;;
50757;SDS011;36732;47.980;11.652;2023-05-27T10:43:18;12.43;;;5.20;;
50757;SDS011;36732;47.980;11.652;2023-05-27T10:45:45;10.32;;;5.25;;
50757;SDS011;36732;47.980;11.652;2023-05-27T10:48:14;6.63;;;4.68;;
50757;SDS011;36732;47.980;11.652;2023-05-27T10:50:50;6.80;;;4.80;;
50757;SDS011;36732;47.980;11.652;2023-05-27T10:53:18;6.93;;;4.68;;
50757;SDS011;36732;47.980;11.652;2023-05-27T10:55:46;6.10;;;4.35;;
50757;SDS011;36732;47.980;11.652;2023-05-27T10:58:17;10.07;;;4.90;;
50757;SDS011;36732;47.980;11.652;2023-05-27T11:00:44;7.45;;;4.80;;
50757;SDS011;36732;47.980;11.652;2023-05-27T11:03:27;8.48;;;5.07;;
50757;SDS011;36732;47.980;11.652;2023-05-27T11:08:27;8.82;;;4.55;;
50757;SDS011;36732;47.980;11.652;2023-05-27T11:11:12;8.20;;;4.43;;
50757;SDS011;36732;47.980;11.652;2023-05-27T11:13:39;7.68;;;4.65;;
50757;SDS011;36732;47.980;11.652;2023-05-27T11:16:07;8.82;;;4.68;;
50757;SDS011;36732;47.980;11.652;2023-05-27T11:18:43;6.38;;;4.38;;
50757;SDS011;36732;47.980;11.652;2023-05-27T11:21:11;7.82;;;4.78;;
50757;SDS011;36732;47.980;11.652;2023-05-27T11:23:48;7.90;;;4.68;;
50757;SDS011;36732;47.980;11.652;2023-05-27T11:26:17;7.63;;;5.03;;
50757;SDS011;36732;47.980;11.652;2023-05-27T11:28:53;6.35;;;4.60;;
50757;SDS011;36732;47.980;11.652;2023-05-27T11:31:21;7.65;;;4.47;;
50757;SDS011;36732;47.980;11.652;2023-05-27T11:33:56;6.97;;;4.28;;
50757;SDS011;36732;47.980;11.652;2023-05-27T11:36:25;5.35;;;4.47;;
50757;SDS011;36732;47.980;11.652;2023-05-27T11:38:53;5.00;;;3.95;;
50757;SDS011;36732;47.980;11.652;2023-05-27T11:41:25;9.43;;;5.07;;
50757;SDS011;36732;47.980;11.652;2023-05-27T11:44:00;16.10;;;4.47;;
50757;SDS011;36732;47.980;11.652;2023-05-27T11:46:39;10.50;;;5.03;;
50757;SDS011;36732;47.980;11.652;2023-05-27T11:49:07;8.15;;;4.43;;
50757;SDS011;36732;47.980;11.652;2023-05-27T11:51:39;9.82;;;4.72;;
50757;SDS011;36732;47.980;11.652;2023-05-27T11:54:07;6.95;;;4.40;;
50757;SDS011;36732;47.980;11.652;2023-05-27T11:56:51;6.75;;;3.85;;
50757;SDS011;36732;47.980;11.652;2023-05-27T11:59:18;7.60;;;4.65;;
50757;SDS011;36732;47.980;11.652;2023-05-27T12:01:45;10.10;;;5.15;;
50757;SDS011;36732;47.980;11.652;2023-05-27T12:04:11;11.98;;;5.20;;
50757;SDS011;36732;47.980;11.652;2023-05-27T12:06:37;6.93;;;4.57;;
50757;SDS011;36732;47.980;11.652;2023-05-27T12:09:04;5.63;;;3.97;;
50757;SDS011;36732;47.980;11.652;2023-05-27T12:11:30;7.75;;;4.20;;
50757;SDS011;36732;47.980;11.652;2023-05-27T12:13:57;5.88;;;4.35;;
50757;SDS011;36732;47.980;11.652;2023-05-27T12:16:23;7.47;;;4.75;;
50757;SDS011;36732;47.980;11.652;2023-05-27T12:18:49;14.32;;;5.28;;
50757;SDS011;36732;47.980;11.652;2023-05-27T12:21:17;6.82;;;4.70;;
50757;SDS011;36732;47.980;11.652;2023-05-27T12:23:45;8.55;;;4.07;;
50757;SDS011;36732;47.980;11.652;2023-05-27T12:26:12;5.90;;;4.30;;
50757;SDS011;36732;47.980;11.652;2023-05-27T12:28:39;6.93;;;4.70;;
50757;SDS011;36732;47.980;11.652;2023-05-27T12:31:06;6.38;;;4.28;;
50757;SDS011;36732;47.980;11.652;2023-05-27T12:33:32;7.25;;;4.10;;
50757;SDS011;36732;47.980;11.652;2023-05-27T12:35:58;10.40;;;4.25;;
50757;SDS011;36732;47.980;11.652;2023-05-27T12:38:24;6.70;;;3.85;;
50757;SDS011;36732;47.980;11.652;2023-05-27T12:40:50;7.78;;;4.20;;
50757;SDS011;36732;47.980;11.652;2023-05-27T12:43:19;11.95;;;5.72;;
50757;SDS011;36732;47.980;11.652;2023-05-27T12:45:45;7.70;;;4.25;;
50757;SDS011;36732;47.980;11.652;2023-05-27T12:48:11;10.75;;;4.60;;
50757;SDS011;36732;47.980;11.652;2023-05-27T12:50:38;9.43;;;4.60;;
50757;SDS011;36732;47.980;11.652;2023-05-27T12:53:03;8.95;;;4.00;;
50757;SDS011;36732;47.980;11.652;2023-05-27T12:55:29;8.15;;;4.00;;
50757;SDS011;36732;47.980;11.652;2023-05-27T12:57:55;12.38;;;4.53;;
50757;SDS011;36732;47.980;11.652;2023-05-27T13:00:21;8.18;;;4.30;;
50757;SDS011;36732;47.980;11.652;2023-05-27T13:02:48;6.18;;;3.40;;
50757;SDS011;36732;47.980;11.652;2023-05-27T13:05:15;8.82;;;3.72;;
50757;SDS011;36732;47.980;11.652;2023-05-27T13:07:52;9.15;;;3.67;;
50757;SDS011;36732;47.980;11.652;2023-05-27T13:10:22;6.72;;;3.58;;
50757;SDS011;36732;47.980;11.652;2023-05-27T13:12:49;5.53;;;3.28;;
50757;SDS011;36732;47.980;11.652;2023-05-27T13:15:15;8.25;;;3.75;;
50757;SDS011;36732;47.980;11.652;2023-05-27T13:17:41;4.90;;;3.10;;
50757;SDS011;36732;47.980;11.652;2023-05-27T13:20:12;8.55;;;3.75;;
50757;SDS011;36732;47.980;11.652;2023-05-27T13:22:39;6.28;;;3.58;;
50757;SDS011;36732;47.980;11.652;2023-05-27T13:25:06;6.18;;;3.53;;
50757;SDS011;36732;47.980;11.652;2023-05-27T13:27:32;6.78;;;3.58;;
50757;SDS011;36732;47.980;11.652;2023-05-27T13:29:58;9.48;;;3.47;;
50757;SDS011;36732;47.980;11.652;2023-05-27T13:32:24;7.35;;;3.50;;
50757;SDS011;36732;47.980;11.652;2023-05-27T13:34:51;8.27;;;3.85;;
50757;SDS011;36732;47.980;11.652;2023-05-27T13:37:17;7.53;;;3.47;;
50757;SDS011;36732;47.980;11.652;2023-05-27T13:39:43;7.07;;;3.35;;
50757;SDS011;36732;47.980;11.652;2023-05-27T13:42:09;5.28;;;3.78;;
50757;SDS011;36732;47.980;11.652;2023-05-27T13:44:35;6.70;;;3.88;;
50757;SDS011;36732;47.980;11.652;2023-05-27T13:47:01;4.70;;;3.45;;
50757;SDS011;36732;47.980;11.652;2023-05-27T13:49:27;6.38;;;3.55;;
50757;SDS011;36732;47.980;11.652;2023-05-27T13:51:53;6.25;;;3.45;;
50757;SDS011;36732;47.980;11.652;2023-05-27T13:54:18;7.80;;;3.30;;
50757;SDS011;36732;47.980;11.652;2023-05-27T13:56:44;9.65;;;3.58;;
50757;SDS011;36732;47.980;11.652;2023-05-27T13:59:10;6.15;;;3.20;;
50757;SDS011;36732;47.980;11.652;2023-05-27T14:01:37;6.47;;;3.00;;
50757;SDS011;36732;47.980;11.652;2023-05-27T14:04:04;4.90;;;3.60;;
50757;SDS011;36732;47.980;11.652;2023-05-27T14:06:30;6.47;;;3.80;;
50757;SDS011;36732;47.980;11.652;2023-05-27T14:08:56;8.43;;;3.75;;
50757;SDS011;36732;47.980;11.652;2023-05-27T14:11:22;5.90;;;3.20;;
50757;SDS011;36732;47.980;11.652;2023-05-27T14:13:48;6.20;;;3.65;;
50757;SDS011;36732;47.980;11.652;2023-05-27T14:16:15;6.57;;;3.25;;
50757;SDS011;36732;47.980;11.652;2023-05-27T14:18:41;5.90;;;3.45;;
50757;SDS011;36732;47.980;11.652;2023-05-27T14:21:08;8.02;;;3.20;;
50757;SDS011;36732;47.980;11.652;2023-05-27T14:23:34;5.40;;;3.40;;
50757;SDS011;36732;47.980;11.652;2023-05-27T14:25:59;5.35;;;3.42;;
50757;SDS011;36732;47.980;11.652;2023-05-27T14:28:25;6.88;;;3.47;;
50757;SDS011;36732;47.980;11.652;2023-05-27T14:30:51;7.85;;;3.45;;
50757;SDS011;36732;47.980;11.652;2023-05-27T14:33:17;7.18;;;3.65;;
50757;SDS011;36732;47.980;11.652;2023-05-27T14:35:44;5.85;;;3.40;;
50757;SDS011;36732;47.980;11.652;2023-05-27T14:38:11;8.88;;;3.80;;
50757;SDS011;36732;47.980;11.652;2023-05-27T14:40:37;7.05;;;3.75;;
50757;SDS011;36732;47.980;11.652;2023-05-27T14:43:03;5.93;;;3.10;;
50757;SDS011;36732;47.980;11.652;2023-05-27T14:45:30;5.32;;;3.00;;
50757;SDS011;36732;47.980;11.652;2023-05-27T14:47:57;5.40;;;2.97;;